Time;durP1;ratioP1;P1;durP2;ratioP2;P2;SDS_P1;SDS_P2;PMS_P1;PMS_P2;Temp;Humidity;BMP_temperature;BMP_pressure;BME280_temperature;BME280_humidity;BME280_pressure;Samples;Min_cycle;Max_cycle;Signal;HPM_P1;HPM_P2
2022/12/20 00:01:54;;;;;;;;;;;9.10;99.90;;;;;;5005381;28;169170;-71
2022/12/20 00:04:20;;;;;;;;;;;9.10;99.90;;;;;;5093535;28;20312;-71
2022/12/20 00:06:46;;;;;;;;;;;9.10;99.90;;;;;;4994842;28;180929;-71
2022/12/20 00:09:12;;;;;;;;;;;9.10;99.90;;;;;;5063512;28;19963;-71
2022/12/20 00:11:39;;;;;;;;;;;9.10;99.90;;;;;;5007024;28;159247;-71
2022/12/20 00:14:06;;;;;;;;;;;9.10;99.90;;;;;;5058812;28;19932;-71
2022/12/20 00:16:32;;;;;;;;;;;9.10;99.90;;;;;;5018199;28;207904;-71
2022/12/20 00:18:59;;;;;;;;;;;9.10;99.90;;;;;;5063977;28;19928;-71
2022/12/20 00:21:26;;;;;;;;;;;9.10;99.90;;;;;;5008819;28;215772;-71
2022/12/20 00:23:53;;;;;;;;;;;9.10;99.90;;;;;;5062174;28;19928;-71
2022/12/20 00:26:21;;;;;;;;;;;9.10;99.90;;;;;;5020004;28;198618;-70
2022/12/20 00:28:47;;;;;;;;;;;9.10;99.90;;;;;;5060207;28;19935;-70
2022/12/20 00:31:14;;;;;;;;;;;9.10;99.90;;;;;;5013444;28;163572;-70
2022/12/20 00:33:43;;;;;;;;;;;9.10;99.90;;;;;;5056294;28;19931;-71
2022/12/20 00:36:09;;;;;;;;;;;9.20;99.90;;;;;;5030972;28;202485;-71
2022/12/20 00:38:35;;;;;;;;;;;9.20;99.90;;;;;;5050462;28;19924;-71
2022/12/20 00:41:05;;;;;;;;;;;9.20;99.90;;;;;;5034466;28;205964;-70
2022/12/20 00:43:32;;;;;;;;;;;9.20;99.90;;;;;;5051158;28;19920;-71
2022/12/20 00:45:58;;;;;;;;;;;9.20;99.90;;;;;;5036190;28;139882;-71
2022/12/20 00:48:25;;;;;;;;;;;9.20;99.90;;;;;;5033401;28;19924;-71
2022/12/20 00:50:51;;;;;;;;;;;9.20;99.90;;;;;;5015527;28;208057;-71
2022/12/20 00:53:17;;;;;;;;;;;9.10;99.90;;;;;;5070450;28;19966;-70
2022/12/20 00:55:45;;;;;;;;;;;9.20;99.90;;;;;;5021209;28;123576;-71
2022/12/20 00:58:11;;;;;;;;;;;9.20;99.90;;;;;;5042983;28;19921;-71
2022/12/20 01:00:38;;;;;;;;;;;9.20;99.90;;;;;;4998404;28;187859;-70
2022/12/20 01:03:04;;;;;;;;;;;9.10;99.90;;;;;;5063302;28;19927;-70
2022/12/20 01:05:30;;;;;;;;;;;9.10;99.90;;;;;;5003574;28;206946;-70
2022/12/20 01:07:57;;;;;;;;;;;9.10;99.90;;;;;;5051328;28;20428;-70
2022/12/20 01:10:22;;;;;;;;;;;9.20;99.90;;;;;;5014478;28;207804;-71
2022/12/20 01:12:48;;;;;;;;;;;9.20;99.90;;;;;;5046932;28;19936;-69
2022/12/20 01:15:15;;;;;;;;;;;9.20;99.90;;;;;;5015161;28;211741;-71
2022/12/20 01:17:41;;;;;;;;;;;9.20;99.90;;;;;;5063963;28;19928;-70
2022/12/20 01:20:07;;;;;;;;;;;9.20;99.90;;;;;;5027246;28;207267;-70
2022/12/20 01:22:33;;;;;;;;;;;9.20;99.90;;;;;;5070356;28;19924;-70
2022/12/20 01:24:59;;;;;;;;;;;9.20;99.90;;;;;;5042552;28;208476;-71
2022/12/20 01:27:25;;;;;;;;;;;9.20;99.90;;;;;;5032092;28;19924;-70
2022/12/20 01:29:51;;;;;;;;;;;9.20;99.90;;;;;;5071799;28;19924;-71
2022/12/20 01:32:17;;;;;;;;;;;9.20;99.90;;;;;;5001201;28;264611;-71
2022/12/20 01:34:43;;;;;;;;;;;9.20;99.90;;;;;;5070498;28;19920;-70
2022/12/20 01:37:09;;;;;;;;;;;9.30;99.90;;;;;;5031088;28;207778;-70
2022/12/20 01:39:35;;;;;;;;;;;9.30;99.90;;;;;;5091524;28;19924;-70
2022/12/20 01:42:00;;;;;;;;;;;9.30;99.90;;;;;;5023593;28;211223;-71
2022/12/20 01:44:26;;;;;;;;;;;9.30;99.90;;;;;;5075029;28;19921;-70
2022/12/20 01:46:53;;;;;;;;;;;9.30;99.90;;;;;;5023946;28;187664;-70
2022/12/20 01:49:28;;;;;;;;;;;9.40;99.90;;;;;;5045891;28;19959;-71
2022/12/20 01:51:58;;;;;;;;;;;9.30;99.90;;;;;;4997949;28;195089;-69
2022/12/20 01:54:27;;;;;;;;;;;9.40;99.90;;;;;;5063582;28;20514;-70
2022/12/20 01:56:56;;;;;;;;;;;9.30;99.90;;;;;;5026288;28;167721;-70
2022/12/20 01:59:22;;;;;;;;;;;9.40;99.90;;;;;;5043618;28;19935;-70
2022/12/20 02:01:48;;;;;;;;;;;9.30;99.90;;;;;;5006983;28;208437;-70
2022/12/20 02:04:14;;;;;;;;;;;9.30;99.90;;;;;;5066211;28;19969;-70
2022/12/20 02:06:40;;;;;;;;;;;9.30;99.90;;;;;;5011818;28;123318;-70
2022/12/20 02:09:07;;;;;;;;;;;9.30;99.90;;;;;;5066022;28;19925;-69
2022/12/20 02:11:51;;;;;;;;;;;9.20;99.90;;;;;;5015628;28;177077;-70
2022/12/20 02:14:36;;;;;;;;;;;9.30;99.90;;;;;;5070460;28;19924;-70
2022/12/20 02:17:05;;;;;;;;;;;9.30;99.90;;;;;;5017547;28;204034;-69
2022/12/20 02:19:49;;;;;;;;;;;9.30;99.90;;;;;;5064345;28;19928;-71
2022/12/20 02:22:25;;;;;;;;;;;9.40;99.90;;;;;;4994684;28;208030;-70
2022/12/20 02:25:17;;;;;;;;;;;9.40;99.90;;;;;;5073871;28;19920;-69
2022/12/20 02:28:10;;;;;;;;;;;9.40;99.90;;;;;;4982024;28;78176;-70
2022/12/20 02:30:40;;;;;;;;;;;9.40;99.90;;;;;;5002464;28;197293;-70
2022/12/20 02:33:09;;;;;;;;;;;9.50;99.90;;;;;;5061298;28;19924;-70
2022/12/20 02:35:35;;;;;;;;;;;9.50;99.90;;;;;;4991240;28;207272;-71
2022/12/20 02:38:21;;;;;;;;;;;9.50;99.90;;;;;;5042433;28;19932;-71
2022/12/20 02:40:49;;;;;;;;;;;9.50;99.90;;;;;;4979820;28;174798;-71
2022/12/20 02:46:01;;;;;;;;;;;9.50;99.90;;;;;;4979044;28;213977;-71
2022/12/20 02:48:29;;;;;;;;;;;9.60;99.90;;;;;;5028741;28;20384;-71
2022/12/20 02:50:56;;;;;;;;;;;9.50;99.90;;;;;;4977900;28;207074;-71
2022/12/20 02:53:22;;;;;;;;;;;9.50;99.90;;;;;;5029052;28;20432;-71
2022/12/20 02:56:04;;;;;;;;;;;9.40;99.90;;;;;;4984774;28;124779;-70
2022/12/20 02:58:30;;;;;;;;;;;9.40;99.90;;;;;;5033770;28;19924;-70
2022/12/20 03:00:56;;;;;;;;;;;9.40;99.90;;;;;;4999398;28;152659;-71
2022/12/20 03:03:22;;;;;;;;;;;9.40;99.90;;;;;;5046950;28;19921;-71
2022/12/20 03:05:53;;;;;;;;;;;9.40;99.90;;;;;;4982757;28;185326;-69
2022/12/20 03:08:19;;;;;;;;;;;9.30;99.90;;;;;;5020030;28;19928;-70
2022/12/20 03:10:45;;;;;;;;;;;9.30;99.90;;;;;;5015166;28;208376;-69
2022/12/20 03:13:11;;;;;;;;;;;9.30;99.90;;;;;;5067640;28;19921;-69
2022/12/20 03:15:37;;;;;;;;;;;9.30;99.90;;;;;;5017111;28;207125;-70
2022/12/20 03:18:03;;;;;;;;;;;9.30;99.90;;;;;;5062414;28;19926;-69
2022/12/20 03:20:29;;;;;;;;;;;9.20;99.90;;;;;;5011052;28;208135;-68
2022/12/20 03:22:55;;;;;;;;;;;9.30;99.90;;;;;;5050290;28;19967;-69
2022/12/20 03:25:21;;;;;;;;;;;9.20;99.90;;;;;;5018917;28;147686;-70
2022/12/20 03:27:47;;;;;;;;;;;9.30;99.90;;;;;;5066462;28;19924;-70
2022/12/20 03:30:13;;;;;;;;;;;9.20;99.90;;;;;;5018771;28;211143;-70
2022/12/20 03:32:39;;;;;;;;;;;9.30;99.90;;;;;;5067574;28;19939;-70
2022/12/20 03:35:06;;;;;;;;;;;9.20;99.90;;;;;;5048630;27;207773;-70
2022/12/20 03:37:32;;;;;;;;;;;9.20;99.90;;;;;;5027955;28;19931;-70
2022/12/20 03:39:58;;;;;;;;;;;9.20;99.90;;;;;;5046889;28;245875;-70
2022/12/20 03:42:24;;;;;;;;;;;9.30;99.90;;;;;;5059695;28;19925;-70
2022/12/20 03:44:50;;;;;;;;;;;9.20;99.90;;;;;;5070640;28;19924;-70
2022/12/20 03:47:16;;;;;;;;;;;9.20;99.90;;;;;;5023153;28;179226;-71
2022/12/20 03:49:42;;;;;;;;;;;9.20;99.90;;;;;;5063981;28;20486;-70
2022/12/20 03:52:11;;;;;;;;;;;9.20;99.90;;;;;;5016536;28;212104;-70
2022/12/20 03:54:36;;;;;;;;;;;9.30;99.90;;;;;;5097564;28;20386;-71
2022/12/20 03:57:02;;;;;;;;;;;9.30;99.90;;;;;;5041898;28;217358;-70
2022/12/20 03:59:29;;;;;;;;;;;9.20;99.90;;;;;;5095699;28;19931;-71
2022/12/20 04:01:55;;;;;;;;;;;9.20;99.90;;;;;;5013629;28;210052;-71
2022/12/20 04:04:21;;;;;;;;;;;9.20;99.90;;;;;;5065757;28;20270;-70
2022/12/20 04:06:47;;;;;;;;;;;9.20;99.90;;;;;;5023912;28;207206;-71
2022/12/20 04:09:13;;;;;;;;;;;9.20;99.90;;;;;;5072832;28;19920;-71
2022/12/20 04:11:39;;;;;;;;;;;9.30;99.90;;;;;;4992949;28;159434;-70
2022/12/20 04:14:05;;;;;;;;;;;9.30;99.90;;;;;;5069098;28;20059;-70
2022/12/20 04:16:31;;;;;;;;;;;9.20;99.90;;;;;;5008897;28;144665;-70
2022/12/20 04:18:57;;;;;;;;;;;9.30;99.90;;;;;;5058691;28;19927;-70
2022/12/20 04:21:25;;;;;;;;;;;9.30;99.90;;;;;;5003116;28;170222;-70
2022/12/20 04:23:51;;;;;;;;;;;9.30;99.90;;;;;;5060068;28;19927;-70
2022/12/20 04:26:17;;;;;;;;;;;9.30;99.90;;;;;;5023761;28;211704;-69
2022/12/20 04:28:43;;;;;;;;;;;9.40;99.90;;;;;;5040904;28;19939;-69
2022/12/20 04:31:09;;;;;;;;;;;9.40;99.90;;;;;;5004522;28;207583;-69
2022/12/20 04:33:35;;;;;;;;;;;9.40;99.90;;;;;;5054565;28;19928;-70
2022/12/20 04:36:01;;;;;;;;;;;9.40;99.90;;;;;;5017339;28;206730;-70
2022/12/20 04:38:28;;;;;;;;;;;9.40;99.90;;;;;;5036455;28;19925;-71
2022/12/20 04:40:54;;;;;;;;;;;9.40;99.90;;;;;;5032441;28;138315;-70
2022/12/20 04:43:21;;;;;;;;;;;9.40;99.90;;;;;;5068990;28;19929;-70
2022/12/20 04:45:48;;;;;;;;;;;9.40;99.90;;;;;;5012523;28;178620;-71
2022/12/20 04:48:14;;;;;;;;;;;9.40;99.90;;;;;;5046672;28;19924;-71
2022/12/20 04:50:40;;;;;;;;;;;9.40;99.90;;;;;;5014291;28;208542;-71
2022/12/20 04:55:51;;;;;;;;;;;9.40;99.90;;;;;;5020880;28;207987;-70
2022/12/20 04:58:17;;;;;;;;;;;9.50;99.90;;;;;;5058764;28;19924;-70
2022/12/20 05:00:43;;;;;;;;;;;9.50;99.90;;;;;;5016892;28;207665;-72
2022/12/20 05:03:09;;;;;;;;;;;9.50;99.90;;;;;;5079571;28;19932;-71
2022/12/20 05:05:35;;;;;;;;;;;9.50;99.90;;;;;;5004727;28;208101;-71
2022/12/20 05:08:01;;;;;;;;;;;9.50;99.90;;;;;;5074859;28;19924;-71
2022/12/20 05:10:27;;;;;;;;;;;9.50;99.90;;;;;;5007067;28;192736;-72
2022/12/20 05:12:52;;;;;;;;;;;9.60;99.90;;;;;;5037622;28;19928;-71
2022/12/20 05:15:18;;;;;;;;;;;9.60;99.90;;;;;;5012130;28;208859;-72
2022/12/20 05:17:44;;;;;;;;;;;9.50;99.90;;;;;;5066046;28;20385;-73
2022/12/20 05:20:11;;;;;;;;;;;9.60;99.90;;;;;;5011569;28;208359;-72
2022/12/20 05:28:06;;;;;;;;;;;9.70;99.90;;;;;;5050730;28;20522;-72
2022/12/20 05:30:32;;;;;;;;;;;9.70;99.90;;;;;;5032644;28;162990;-72
2022/12/20 05:32:58;;;;;;;;;;;9.70;99.90;;;;;;5062323;28;19970;-72
2022/12/20 05:35:24;;;;;;;;;;;9.70;99.90;;;;;;5019019;28;207015;-72
2022/12/20 05:37:50;;;;;;;;;;;9.80;99.90;;;;;;5080955;28;19965;-72
2022/12/20 05:40:16;;;;;;;;;;;9.80;99.90;;;;;;5014029;28;224355;-72
2022/12/20 05:42:42;;;;;;;;;;;9.80;99.90;;;;;;5061839;28;20010;-72
2022/12/20 05:45:08;;;;;;;;;;;9.80;99.90;;;;;;5017570;28;220571;-73
2022/12/20 05:47:34;;;;;;;;;;;9.80;99.90;;;;;;5076601;28;19943;-72
2022/12/20 05:50:01;;;;;;;;;;;9.90;99.90;;;;;;5029710;28;210756;-71
2022/12/20 05:52:27;;;;;;;;;;;9.90;99.90;;;;;;5067014;28;19920;-72
2022/12/20 05:54:53;;;;;;;;;;;9.90;99.90;;;;;;5039533;28;207550;-72
2022/12/20 05:57:18;;;;;;;;;;;9.90;99.90;;;;;;5028735;28;59579;-72
2022/12/20 05:59:45;;;;;;;;;;;9.90;99.90;;;;;;5067664;28;19920;-72
2022/12/20 06:02:11;;;;;;;;;;;9.90;99.90;;;;;;5029532;28;183089;-72
2022/12/20 06:04:37;;;;;;;;;;;10.00;99.90;;;;;;5063583;28;20566;-73
2022/12/20 06:07:09;;;;;;;;;;;9.90;99.90;;;;;;5032562;28;107017;-72
2022/12/20 06:09:35;;;;;;;;;;;10.00;99.90;;;;;;5095316;28;19920;-73
2022/12/20 06:12:09;;;;;;;;;;;10.00;99.90;;;;;;5072563;28;159294;-71
2022/12/20 06:14:35;;;;;;;;;;;10.00;99.90;;;;;;5101199;28;19912;-72
2022/12/20 06:17:01;;;;;;;;;;;10.00;99.90;;;;;;5004409;28;132350;-71
2022/12/20 06:19:27;;;;;;;;;;;10.00;99.90;;;;;;5076001;28;19920;-72
2022/12/20 06:21:53;;;;;;;;;;;10.10;99.90;;;;;;4999284;28;210689;-72
2022/12/20 06:24:24;;;;;;;;;;;10.00;99.90;;;;;;5089315;28;20289;-72
2022/12/20 06:26:50;;;;;;;;;;;10.10;99.90;;;;;;5013174;28;141341;-70
2022/12/20 06:29:18;;;;;;;;;;;10.10;99.90;;;;;;5063347;28;19925;-72
2022/12/20 06:31:44;;;;;;;;;;;10.10;99.90;;;;;;4999712;28;208859;-71
2022/12/20 06:34:10;;;;;;;;;;;10.20;99.90;;;;;;5050694;28;19924;-71
2022/12/20 06:36:36;;;;;;;;;;;10.20;99.90;;;;;;5021957;28;207768;-71
2022/12/20 06:39:02;;;;;;;;;;;10.20;99.90;;;;;;5058315;28;19979;-71
2022/12/20 06:41:28;;;;;;;;;;;10.30;99.90;;;;;;5019984;28;115185;-72
2022/12/20 06:43:54;;;;;;;;;;;10.20;99.90;;;;;;5065336;28;20416;-71
2022/12/20 06:46:20;;;;;;;;;;;10.20;99.90;;;;;;5016893;28;144349;-71
2022/12/20 06:48:46;;;;;;;;;;;10.20;99.90;;;;;;5060697;28;19928;-71
2022/12/20 06:51:12;;;;;;;;;;;10.10;99.90;;;;;;5020368;28;210032;-71
2022/12/20 06:53:38;;;;;;;;;;;10.00;99.90;;;;;;5049816;28;20003;-71
2022/12/20 06:56:04;;;;;;;;;;;10.00;99.90;;;;;;5020767;28;213786;-72
2022/12/20 06:58:30;;;;;;;;;;;10.00;99.90;;;;;;5063164;28;19925;-71
2022/12/20 07:00:56;;;;;;;;;;;9.90;99.90;;;;;;5024361;28;210500;-72
2022/12/20 07:03:22;;;;;;;;;;;9.90;99.90;;;;;;5058240;28;19991;-71
2022/12/20 07:05:52;;;;;;;;;;;9.90;99.90;;;;;;4999546;28;207500;-71
2022/12/20 07:08:18;;;;;;;;;;;9.90;99.90;;;;;;5025011;28;19939;-69
2022/12/20 07:10:44;;;;;;;;;;;9.90;99.90;;;;;;5038663;28;180352;-69
2022/12/20 07:13:10;;;;;;;;;;;9.90;99.90;;;;;;5050360;28;19995;-70
2022/12/20 07:15:36;;;;;;;;;;;9.90;99.90;;;;;;5016402;28;207974;-69
2022/12/20 07:18:02;;;;;;;;;;;9.90;99.90;;;;;;5061613;28;20296;-71
2022/12/20 07:20:29;;;;;;;;;;;9.90;99.90;;;;;;5021796;28;205992;-71
2022/12/20 07:22:55;;;;;;;;;;;9.90;99.90;;;;;;5067160;28;19931;-72
2022/12/20 07:25:21;;;;;;;;;;;9.90;99.90;;;;;;5018266;28;206398;-71
2022/12/20 07:27:50;;;;;;;;;;;9.90;99.90;;;;;;5050653;28;19927;-71
2022/12/20 07:30:17;;;;;;;;;;;9.90;99.90;;;;;;5038104;28;218550;-71
2022/12/20 07:32:44;;;;;;;;;;;9.90;99.90;;;;;;5059828;28;19912;-71
2022/12/20 07:35:10;;;;;;;;;;;9.90;99.90;;;;;;5032941;28;207993;-71
2022/12/20 07:37:36;;;;;;;;;;;9.90;99.90;;;;;;5048431;28;19935;-70
2022/12/20 07:40:03;;;;;;;;;;;10.00;99.90;;;;;;5003462;28;209060;-71
2022/12/20 07:42:28;;;;;;;;;;;10.00;99.90;;;;;;5056548;28;19924;-72
2022/12/20 07:44:54;;;;;;;;;;;9.90;99.90;;;;;;5051642;28;207714;-70
2022/12/20 07:47:21;;;;;;;;;;;10.00;99.90;;;;;;5029815;28;137590;-70
2022/12/20 07:49:48;;;;;;;;;;;10.00;99.90;;;;;;5068181;28;19928;-70
2022/12/20 07:52:15;;;;;;;;;;;10.00;99.90;;;;;;5033165;28;211203;-71
2022/12/20 07:54:48;;;;;;;;;;;10.00;99.90;;;;;;5064362;28;19931;-72
2022/12/20 07:57:19;;;;;;;;;;;10.00;99.90;;;;;;4995036;28;157197;-70
2022/12/20 07:59:48;;;;;;;;;;;10.00;99.90;;;;;;5097070;28;19932;-70
2022/12/20 08:02:18;;;;;;;;;;;10.00;99.90;;;;;;4992555;28;190696;-70
2022/12/20 08:04:44;;;;;;;;;;;10.00;99.90;;;;;;5066143;28;19924;-71
2022/12/20 08:07:10;;;;;;;;;;;10.00;99.90;;;;;;4986000;28;192107;-70
2022/12/20 08:09:38;;;;;;;;;;;10.00;99.90;;;;;;5071319;28;20701;-71
2022/12/20 08:12:06;;;;;;;;;;;10.00;99.90;;;;;;5015916;28;202000;-71
2022/12/20 08:14:32;;;;;;;;;;;10.00;99.90;;;;;;5073097;28;19932;-70
2022/12/20 08:16:57;;;;;;;;;;;10.00;99.90;;;;;;4999392;28;208271;-72
2022/12/20 08:19:23;;;;;;;;;;;10.10;99.90;;;;;;5063551;28;19924;-70
2022/12/20 08:21:49;;;;;;;;;;;10.10;99.90;;;;;;5011439;28;207698;-71
2022/12/20 08:24:15;;;;;;;;;;;10.10;99.90;;;;;;5067376;28;19933;-71
2022/12/20 08:26:41;;;;;;;;;;;10.10;99.90;;;;;;5013981;28;138218;-71
2022/12/20 08:29:07;;;;;;;;;;;10.10;99.90;;;;;;5083490;28;20032;-70
2022/12/20 08:31:41;;;;;;;;;;;10.20;99.90;;;;;;4998745;28;180994;-71
2022/12/20 08:34:07;;;;;;;;;;;10.20;99.90;;;;;;5090653;27;19936;-72
2022/12/20 08:36:33;;;;;;;;;;;10.20;99.90;;;;;;4994553;28;213285;-71
2022/12/20 08:39:03;;;;;;;;;;;10.20;99.90;;;;;;5049539;28;19935;-71
2022/12/20 08:41:29;;;;;;;;;;;10.30;99.90;;;;;;5031079;28;92334;-69
2022/12/20 08:43:55;;;;;;;;;;;10.30;99.90;;;;;;5053001;28;19962;-71
2022/12/20 08:46:21;;;;;;;;;;;10.30;99.90;;;;;;5025142;28;181009;-71
2022/12/20 08:48:46;;;;;;;;;;;10.30;99.90;;;;;;5051404;28;20007;-70
2022/12/20 08:51:12;;;;;;;;;;;10.30;99.90;;;;;;5019418;28;206638;-71
2022/12/20 08:53:38;;;;;;;;;;;10.40;99.90;;;;;;5061217;28;20323;-71
2022/12/20 08:56:05;;;;;;;;;;;10.40;99.90;;;;;;4998527;28;206697;-71
2022/12/20 08:58:32;;;;;;;;;;;10.40;99.90;;;;;;5053305;28;19924;-71
2022/12/20 09:00:59;;;;;;;;;;;10.40;99.90;;;;;;5043436;28;196874;-70
2022/12/20 09:03:25;;;;;;;;;;;10.40;99.90;;;;;;5056285;28;19932;-70
2022/12/20 09:05:51;;;;;;;;;;;10.40;99.90;;;;;;4992343;28;208425;-71
2022/12/20 09:08:17;;;;;;;;;;;10.40;99.90;;;;;;5074689;28;19924;-71
2022/12/20 09:10:43;;;;;;;;;;;10.40;99.90;;;;;;5017330;28;170945;-71
2022/12/20 09:13:10;;;;;;;;;;;10.40;99.90;;;;;;5055800;28;19928;-71
2022/12/20 09:15:36;;;;;;;;;;;10.40;99.90;;;;;;5022511;28;122288;-71
2022/12/20 09:18:02;;;;;;;;;;;10.40;99.90;;;;;;5041707;28;20265;-71
2022/12/20 09:20:28;;;;;;;;;;;10.50;99.90;;;;;;5036279;28;192738;-72
2022/12/20 09:22:54;;;;;;;;;;;10.50;99.90;;;;;;5032641;28;19935;-69
2022/12/20 09:25:20;;;;;;;;;;;10.50;99.90;;;;;;5050121;27;206118;-70
2022/12/20 09:27:46;;;;;;;;;;;10.50;99.90;;;;;;5047870;28;19928;-70
2022/12/20 09:30:12;;;;;;;;;;;10.60;99.90;;;;;;5011774;28;207946;-70
2022/12/20 09:32:38;;;;;;;;;;;10.60;99.90;;;;;;5069039;28;20610;-71
2022/12/20 09:35:04;;;;;;;;;;;10.60;99.90;;;;;;5014530;28;207685;-70
2022/12/20 09:37:31;;;;;;;;;;;10.60;99.90;;;;;;5040274;28;19936;-70
2022/12/20 09:39:57;;;;;;;;;;;10.60;99.90;;;;;;5051794;28;205234;-69
2022/12/20 09:42:27;;;;;;;;;;;10.60;99.90;;;;;;5028929;28;206207;-70
2022/12/20 09:44:57;;;;;;;;;;;10.70;99.90;;;;;;5053779;28;213415;-69
2022/12/20 09:47:24;;;;;;;;;;;10.70;99.90;;;;;;5021980;28;201392;-70
2022/12/20 09:49:52;;;;;;;;;;;10.70;99.90;;;;;;5069204;28;19939;-70
2022/12/20 09:52:37;;;;;;;;;;;10.70;99.90;;;;;;5023984;28;86763;-70
2022/12/20 09:55:12;;;;;;;;;;;10.70;99.90;;;;;;5011577;28;274752;-70
2022/12/20 09:57:38;;;;;;;;;;;10.70;99.90;;;;;;5048934;28;19925;-70
2022/12/20 10:00:12;;;;;;;;;;;10.70;99.90;;;;;;5022540;28;214834;-70
2022/12/20 10:02:37;;;;;;;;;;;10.70;99.90;;;;;;5089547;28;20416;-70
2022/12/20 10:05:04;;;;;;;;;;;10.70;99.90;;;;;;5022718;28;206824;-70
2022/12/20 10:07:51;;;;;;;;;;;10.70;99.90;;;;;;4993985;28;20286;-69
2022/12/20 10:10:19;;;;;;;;;;;10.60;99.90;;;;;;5024750;28;178337;-70
2022/12/20 10:13:12;;;;;;;;;;;10.60;99.90;;;;;;5087188;28;20417;-70
2022/12/20 10:15:44;;;;;;;;;;;10.60;99.90;;;;;;4963703;28;142852;-70
2022/12/20 10:18:26;;;;;;;;;;;10.50;99.90;;;;;;5017234;28;19939;-69
2022/12/20 10:21:04;;;;;;;;;;;10.50;99.90;;;;;;4984295;28;199687;-70
2022/12/20 10:23:41;;;;;;;;;;;10.50;99.90;;;;;;5014228;28;20031;-71
2022/12/20 10:26:08;;;;;;;;;;;10.50;99.90;;;;;;4986210;28;129362;-71
2022/12/20 10:28:34;;;;;;;;;;;10.50;99.90;;;;;;5012296;28;19925;-71
2022/12/20 10:31:01;;;;;;;;;;;10.40;99.90;;;;;;4972873;28;130180;-71
2022/12/20 10:33:27;;;;;;;;;;;10.40;99.90;;;;;;5030422;28;19925;-70
2022/12/20 10:35:54;;;;;;;;;;;10.40;99.90;;;;;;4971673;28;134314;-71
2022/12/20 10:38:21;;;;;;;;;;;10.40;99.90;;;;;;5019268;28;19929;-71
2022/12/20 10:40:58;;;;;;;;;;;10.40;99.90;;;;;;4986255;28;212827;-71
2022/12/20 10:43:24;;;;;;;;;;;10.40;99.90;;;;;;5015179;28;19929;-71
2022/12/20 10:45:57;;;;;;;;;;;10.40;99.90;;;;;;4965903;28;207397;-70
2022/12/20 10:48:39;;;;;;;;;;;10.40;99.90;;;;;;5015353;28;19932;-70
2022/12/20 10:51:08;;;;;;;;;;;10.40;99.90;;;;;;4962268;28;159856;-70
2022/12/20 10:53:35;;;;;;;;;;;10.40;99.90;;;;;;5044334;28;20494;-70
2022/12/20 10:56:12;;;;;;;;;;;10.40;99.90;;;;;;5014620;28;181494;-70
2022/12/20 10:58:38;;;;;;;;;;;10.40;99.90;;;;;;5061281;28;19928;-69
2022/12/20 11:01:04;;;;;;;;;;;10.40;99.90;;;;;;5029946;28;212049;-70
2022/12/20 11:03:30;;;;;;;;;;;10.40;99.90;;;;;;5067478;28;20700;-70
2022/12/20 11:06:02;;;;;;;;;;;10.30;99.90;;;;;;4989285;28;208774;-71
2022/12/20 11:08:31;;;;;;;;;;;10.40;99.90;;;;;;5036530;28;19925;-71
2022/12/20 11:11:15;;;;;;;;;;;10.40;99.90;;;;;;5027872;28;217892;-70
2022/12/20 11:13:42;;;;;;;;;;;10.40;99.90;;;;;;5060868;28;19932;-71
2022/12/20 11:16:27;;;;;;;;;;;10.40;99.90;;;;;;5021922;28;136150;-71
2022/12/20 11:18:56;;;;;;;;;;;10.40;99.90;;;;;;5061862;28;19924;-71
2022/12/20 11:21:28;;;;;;;;;;;10.40;99.90;;;;;;5021678;28;208069;-71
2022/12/20 11:24:01;;;;;;;;;;;10.40;99.90;;;;;;5063534;28;19928;-70
2022/12/20 11:26:42;;;;;;;;;;;10.40;99.90;;;;;;5031962;28;150586;-70
2022/12/20 11:29:17;;;;;;;;;;;10.40;99.90;;;;;;5062475;28;19928;-71
2022/12/20 11:31:52;;;;;;;;;;;10.50;99.90;;;;;;5046021;28;211930;-72
2022/12/20 11:34:24;;;;;;;;;;;10.40;99.90;;;;;;5075233;28;19953;-72
2022/12/20 11:36:56;;;;;;;;;;;10.50;99.90;;;;;;5016662;28;172508;-71
2022/12/20 11:39:33;;;;;;;;;;;10.50;99.90;;;;;;5098085;27;19928;-72
2022/12/20 11:41:58;;;;;;;;;;;10.50;99.90;;;;;;5021086;28;150057;-72
2022/12/20 11:44:31;;;;;;;;;;;10.50;99.90;;;;;;5078608;28;19920;-72
2022/12/20 11:47:03;;;;;;;;;;;10.50;99.90;;;;;;5040895;28;139631;-73
2022/12/20 11:49:29;;;;;;;;;;;10.50;99.90;;;;;;5074272;28;19925;-73
2022/12/20 11:52:04;;;;;;;;;;;10.40;99.90;;;;;;5028829;28;210201;-73
2022/12/20 11:54:53;;;;;;;;;;;10.50;99.90;;;;;;5063389;28;19936;-72
2022/12/20 11:57:21;;;;;;;;;;;10.50;99.90;;;;;;4998332;28;218861;-71
2022/12/20 11:59:53;;;;;;;;;;;10.50;99.90;;;;;;5074992;28;19931;-73
2022/12/20 12:02:26;;;;;;;;;;;10.40;99.90;;;;;;5003445;28;136292;-72
2022/12/20 12:04:58;;;;;;;;;;;10.50;99.90;;;;;;5075260;28;207721;-72
2022/12/20 12:07:27;;;;;;;;;;;10.50;99.90;;;;;;5000649;28;121520;-72
2022/12/20 12:10:08;;;;;;;;;;;10.50;99.90;;;;;;5087769;28;211823;-71
2022/12/20 12:12:34;;;;;;;;;;;10.40;99.90;;;;;;5006923;28;208702;-73
2022/12/20 12:15:03;;;;;;;;;;;10.50;99.90;;;;;;5011539;28;210417;-71
2022/12/20 12:17:36;;;;;;;;;;;10.40;99.90;;;;;;5048722;28;19925;-72
2022/12/20 12:20:24;;;;;;;;;;;10.40;99.90;;;;;;5058627;27;207693;-72
2022/12/20 12:22:53;;;;;;;;;;;10.40;99.90;;;;;;4997798;28;19929;-71
2022/12/20 12:25:20;;;;;;;;;;;10.40;99.90;;;;;;4959440;28;208812;-71
2022/12/20 12:27:46;;;;;;;;;;;10.40;99.90;;;;;;4992570;28;20287;-71
2022/12/20 12:30:13;;;;;;;;;;;10.40;99.90;;;;;;4955371;28;208637;-71
2022/12/20 12:32:39;;;;;;;;;;;10.30;99.90;;;;;;4993380;28;19932;-71
2022/12/20 12:35:12;;;;;;;;;;;10.30;99.90;;;;;;4953305;28;167387;-71
2022/12/20 12:37:57;;;;;;;;;;;10.30;99.90;;;;;;4995166;28;19921;-72
2022/12/20 12:40:28;;;;;;;;;;;10.30;99.90;;;;;;4955937;28;217878;-72
2022/12/20 12:43:06;;;;;;;;;;;10.30;99.90;;;;;;4987733;28;19929;-72
2022/12/20 12:45:44;;;;;;;;;;;10.30;99.90;;;;;;4977969;28;174071;-71
2022/12/20 12:48:13;;;;;;;;;;;10.30;99.90;;;;;;5024878;28;20444;-72
2022/12/20 12:50:50;;;;;;;;;;;10.30;99.90;;;;;;4984088;28;19921;-70
2022/12/20 12:53:21;;;;;;;;;;;10.20;99.90;;;;;;4999367;28;19925;-70
2022/12/20 12:55:48;;;;;;;;;;;10.30;99.90;;;;;;4965438;28;141384;-71
2022/12/20 12:58:23;;;;;;;;;;;10.30;99.90;;;;;;5030257;28;19936;-70
2022/12/20 13:01:12;;;;;;;;;;;10.30;99.90;;;;;;5024918;28;137086;-70
2022/12/20 13:03:40;;;;;;;;;;;10.20;99.90;;;;;;4978977;28;19933;-71
2022/12/20 13:06:22;;;;;;;;;;;10.30;99.90;;;;;;4927173;28;206729;-70
2022/12/20 13:09:08;;;;;;;;;;;10.20;99.90;;;;;;5016166;28;19945;-72
2022/12/20 13:11:35;;;;;;;;;;;10.20;99.90;;;;;;4980823;28;24487;-71
2022/12/20 13:14:24;;;;;;;;;;;10.30;99.90;;;;;;4984521;28;19948;-71
2022/12/20 13:16:52;;;;;;;;;;;10.20;99.90;;;;;;4886292;28;209857;-71
2022/12/20 13:19:23;;;;;;;;;;;10.30;99.90;;;;;;4937767;28;20401;-70
2022/12/20 13:21:56;;;;;;;;;;;10.30;99.90;;;;;;4893194;28;174889;-71
2022/12/20 13:24:44;;;;;;;;;;;10.30;99.90;;;;;;4954803;28;20395;-70
2022/12/20 13:27:36;;;;;;;;;;;10.30;99.90;;;;;;4908740;28;167603;-71
2022/12/20 13:30:09;;;;;;;;;;;10.30;99.90;;;;;;4883891;28;207776;-71
2022/12/20 13:32:46;;;;;;;;;;;10.30;99.90;;;;;;4907237;28;20424;-71
2022/12/20 13:35:24;;;;;;;;;;;10.30;99.90;;;;;;4890423;28;81700;-71
2022/12/20 13:37:56;;;;;;;;;;;10.30;99.90;;;;;;4939067;28;19923;-71
2022/12/20 13:40:30;;;;;;;;;;;10.30;99.90;;;;;;4889445;28;158636;-71
2022/12/20 13:42:56;;;;;;;;;;;10.30;99.90;;;;;;4956007;28;19941;-71
2022/12/20 13:45:22;;;;;;;;;;;10.40;99.90;;;;;;4915748;28;135483;-71
2022/12/20 13:47:58;;;;;;;;;;;10.40;99.90;;;;;;4960947;28;19921;-72
2022/12/20 13:50:27;;;;;;;;;;;10.30;99.90;;;;;;4939430;28;111642;-71
2022/12/20 13:52:53;;;;;;;;;;;10.40;99.90;;;;;;4980974;28;19930;-71
2022/12/20 13:55:38;;;;;;;;;;;10.40;99.90;;;;;;4987681;28;207955;-72
2022/12/20 13:58:06;;;;;;;;;;;10.30;99.90;;;;;;5057461;28;19924;-71
2022/12/20 14:00:33;;;;;;;;;;;10.40;99.90;;;;;;5007298;28;192084;-72
2022/12/20 14:02:59;;;;;;;;;;;10.40;99.90;;;;;;5040220;28;19924;-71
2022/12/20 14:05:29;;;;;;;;;;;10.40;99.90;;;;;;5015381;28;162679;-71
2022/12/20 14:08:01;;;;;;;;;;;10.40;99.90;;;;;;5043679;28;19924;-72
2022/12/20 14:10:28;;;;;;;;;;;10.40;99.90;;;;;;5010350;28;203469;-72
2022/12/20 14:12:54;;;;;;;;;;;10.40;99.90;;;;;;5052132;28;19925;-71
2022/12/20 14:15:22;;;;;;;;;;;10.40;99.90;;;;;;5040590;28;199662;-71
2022/12/20 14:17:47;;;;;;;;;;;10.40;99.90;;;;;;5073771;28;19944;-72
2022/12/20 14:20:15;;;;;;;;;;;10.40;99.90;;;;;;5009493;28;214110;-72
2022/12/20 14:22:44;;;;;;;;;;;10.40;99.90;;;;;;5056170;28;19968;-70
2022/12/20 14:25:12;;;;;;;;;;;10.40;99.90;;;;;;5007732;28;207965;-72
2022/12/20 14:27:38;;;;;;;;;;;10.40;99.90;;;;;;5061659;28;19935;-70
2022/12/20 14:30:04;;;;;;;;;;;10.50;99.90;;;;;;5003953;28;228949;-71
2022/12/20 14:32:31;;;;;;;;;;;10.40;99.90;;;;;;5069016;28;20057;-72
2022/12/20 14:34:57;;;;;;;;;;;10.50;99.90;;;;;;5038549;28;208208;-73
2022/12/20 14:37:22;;;;;;;;;;;10.50;99.90;;;;;;5039151;28;56846;-73